createdAt,value
2023-06-13T00:02:02.777Z,4.70
2023-06-13T00:04:31.558Z,4.63
2023-06-13T00:07:01.688Z,4.47
2023-06-13T00:09:29.962Z,4.53
2023-06-13T00:11:57.592Z,4.25
2023-06-13T00:14:25.250Z,4.55
2023-06-13T00:16:51.966Z,4.35
2023-06-13T00:19:20.034Z,4.50
2023-06-13T00:21:47.077Z,4.18
2023-06-13T00:24:14.159Z,5.50
2023-06-13T00:26:40.926Z,4.28
2023-06-13T00:29:07.549Z,4.53
2023-06-13T00:31:34.524Z,4.13
2023-06-13T00:34:02.003Z,4.93
2023-06-13T00:36:28.963Z,4.40
2023-06-13T00:38:58.527Z,4.32
2023-06-13T00:41:25.680Z,4.80
2023-06-13T00:43:52.897Z,4.60
2023-06-13T00:46:30.030Z,4.30
2023-06-13T00:48:59.117Z,4.57
2023-06-13T00:51:29.181Z,4.45
2023-06-13T00:53:58.535Z,4.22
2023-06-13T00:56:30.449Z,4.30
2023-06-13T00:59:01.626Z,5.38
2023-06-13T01:01:31.593Z,4.30
2023-06-13T01:04:01.020Z,4.30
2023-06-13T01:06:31.806Z,4.00
2023-06-13T01:09:01.666Z,4.18
2023-06-13T01:11:49.045Z,4.15
2023-06-13T01:14:41.702Z,4.32
2023-06-13T01:17:42.470Z,4.28
2023-06-13T01:20:15.731Z,4.43
2023-06-13T01:22:46.383Z,4.70
2023-06-13T01:25:25.071Z,4.45
2023-06-13T01:27:55.414Z,4.40
2023-06-13T01:30:23.233Z,4.25
2023-06-13T01:32:52.496Z,4.30
2023-06-13T01:35:20.345Z,4.53
2023-06-13T01:37:47.054Z,4.30
2023-06-13T01:40:16.207Z,4.47
2023-06-13T01:42:43.069Z,4.57
2023-06-13T01:45:10.864Z,4.45
2023-06-13T01:47:55.764Z,4.65
2023-06-13T01:50:32.156Z,4.18
2023-06-13T01:53:11.031Z,4.25
2023-06-13T01:55:44.242Z,4.53
2023-06-13T01:58:57.031Z,4.18
2023-06-13T02:01:26.710Z,4.30
2023-06-13T02:03:53.516Z,4.22
2023-06-13T02:06:20.138Z,4.82
2023-06-13T02:08:46.927Z,4.32
2023-06-13T02:11:13.901Z,4.18
2023-06-13T02:13:40.686Z,4.43
2023-06-13T02:16:07.474Z,3.88
2023-06-13T02:18:34.197Z,4.20
2023-06-13T02:21:00.828Z,3.92
2023-06-13T02:23:27.427Z,3.95
2023-06-13T02:25:54.071Z,5.22
2023-06-13T02:28:20.701Z,4.32
2023-06-13T02:30:48.194Z,4.70
2023-06-13T02:33:16.262Z,4.45
2023-06-13T02:35:43.708Z,4.63
2023-06-13T02:38:10.369Z,4.32
2023-06-13T02:40:39.032Z,4.25
2023-06-13T02:43:05.723Z,4.35
2023-06-13T02:45:32.738Z,4.43
2023-06-13T02:47:59.495Z,4.07
2023-06-13T02:50:26.249Z,4.50
2023-06-13T02:52:53.292Z,4.55
2023-06-13T02:55:20.028Z,4.35
2023-06-13T02:57:46.624Z,4.68
2023-06-13T03:00:16.613Z,4.20
2023-06-13T03:02:45.037Z,4.10
2023-06-13T03:05:15.499Z,4.28
2023-06-13T03:07:44.476Z,4.50
2023-06-13T03:10:11.637Z,4.93
2023-06-13T03:12:38.998Z,4.45
2023-06-13T03:15:06.454Z,4.90
2023-06-13T03:17:33.157Z,4.50
2023-06-13T03:20:04.961Z,4.03
2023-06-13T03:22:32.741Z,4.40
2023-06-13T03:25:04.049Z,4.38
2023-06-13T03:27:30.692Z,5.03
2023-06-13T03:29:57.296Z,4.65
2023-06-13T03:32:24.035Z,4.65
2023-06-13T03:34:53.967Z,5.70
2023-06-13T03:37:21.323Z,4.93
2023-06-13T03:39:47.968Z,4.88
2023-06-13T03:42:14.650Z,4.80
2023-06-13T03:44:47.780Z,5.55
2023-06-13T03:47:15.019Z,4.82
2023-06-13T03:49:42.167Z,4.85
2023-06-13T03:52:08.814Z,4.57
2023-06-13T03:54:35.615Z,5.13
2023-06-13T03:57:02.305Z,5.10
2023-06-13T03:59:28.939Z,5.03
2023-06-13T04:01:55.638Z,4.97
2023-06-13T04:04:22.818Z,4.57
2023-06-13T04:06:50.424Z,5.03
2023-06-13T04:09:17.198Z,4.65
2023-06-13T04:11:43.861Z,4.78
2023-06-13T04:14:10.531Z,4.97
2023-06-13T04:16:37.191Z,5.07
2023-06-13T04:19:03.906Z,4.93
2023-06-13T04:21:30.523Z,5.03
2023-06-13T04:23:57.921Z,4.80
2023-06-13T04:26:25.096Z,5.40
2023-06-13T04:28:51.990Z,5.63
2023-06-13T04:31:19.701Z,4.82
2023-06-13T04:33:47.460Z,5.07
2023-06-13T04:36:14.530Z,4.88
2023-06-13T04:38:41.869Z,5.10
2023-06-13T04:41:11.675Z,5.50
2023-06-13T04:43:40.145Z,5.15
2023-06-13T04:46:09.949Z,5.55
2023-06-13T04:48:37.442Z,5.30
2023-06-13T04:51:10.508Z,4.97
2023-06-13T04:53:39.189Z,5.13
2023-06-13T04:56:07.707Z,4.78
2023-06-13T04:58:34.331Z,4.68
2023-06-13T05:01:01.100Z,5.00
2023-06-13T05:03:28.345Z,5.10
2023-06-13T05:05:55.038Z,4.82
2023-06-13T05:08:22.662Z,4.88
2023-06-13T05:10:49.333Z,4.60
2023-06-13T05:13:16.305Z,4.60
2023-06-13T05:15:48.736Z,4.85
2023-06-13T05:18:15.956Z,4.38
2023-06-13T05:20:43.288Z,4.68
2023-06-13T05:23:11.889Z,5.20
2023-06-13T05:25:38.562Z,5.00
2023-06-13T05:28:05.488Z,4.72
2023-06-13T05:30:32.202Z,3.88
2023-06-13T05:32:58.926Z,4.40
2023-06-13T05:35:25.709Z,4.50
2023-06-13T05:37:52.726Z,4.05
2023-06-13T05:40:20.152Z,4.40
2023-06-13T05:42:47.301Z,3.92
2023-06-13T05:45:14.178Z,3.88
2023-06-13T05:47:40.880Z,3.92
2023-06-13T05:50:07.849Z,3.88
2023-06-13T05:52:35.135Z,4.03
2023-06-13T05:55:02.906Z,3.55
2023-06-13T05:57:40.477Z,4.28
2023-06-13T06:00:14.256Z,3.58
2023-06-13T06:02:43.200Z,3.67
2023-06-13T06:05:10.195Z,3.38
2023-06-13T06:07:37.141Z,3.47
2023-06-13T06:10:05.019Z,3.78
2023-06-13T06:12:31.653Z,3.60
2023-06-13T06:14:58.417Z,3.65
2023-06-13T06:17:25.212Z,3.20
2023-06-13T06:19:51.952Z,3.10
2023-06-13T06:22:18.659Z,3.20
2023-06-13T06:24:45.391Z,3.47
2023-06-13T06:27:12.419Z,3.40
2023-06-13T06:29:45.758Z,3.00
2023-06-13T06:32:12.429Z,3.35
2023-06-13T06:34:39.165Z,3.60
2023-06-13T06:37:06.018Z,3.30
2023-06-13T06:39:33.272Z,3.72
2023-06-13T06:41:59.903Z,3.50
2023-06-13T06:44:39.884Z,3.83
2023-06-13T06:47:10.836Z,3.43
2023-06-13T06:49:37.445Z,3.53
2023-06-13T06:52:04.421Z,3.28
2023-06-13T06:54:32.080Z,3.40
2023-06-13T06:56:58.699Z,2.95
2023-06-13T06:59:25.327Z,3.20
2023-06-13T07:01:52.221Z,3.10
2023-06-13T07:04:19.041Z,3.72
2023-06-13T07:06:46.205Z,3.30
2023-06-13T07:09:12.873Z,2.97
2023-06-13T07:11:39.565Z,3.38
2023-06-13T07:14:06.251Z,3.13
2023-06-13T07:16:33.070Z,3.33
2023-06-13T07:18:59.730Z,3.67
2023-06-13T07:21:27.215Z,2.90
2023-06-13T07:24:06.964Z,3.20
2023-06-13T07:26:34.942Z,3.88
2023-06-13T07:29:01.600Z,3.63
2023-06-13T07:31:28.429Z,3.30
2023-06-13T07:33:55.535Z,3.47
2023-06-13T07:36:22.414Z,3.38
2023-06-13T07:38:49.029Z,3.20
2023-06-13T07:41:15.666Z,3.90
2023-06-13T07:43:42.408Z,3.53
2023-06-13T07:46:09.135Z,3.90
2023-06-13T07:48:36.025Z,3.30
2023-06-13T07:51:03.561Z,3.03
2023-06-13T07:53:30.172Z,3.58
2023-06-13T07:55:57.222Z,3.63
2023-06-13T07:58:24.010Z,4.15
2023-06-13T08:00:50.790Z,3.80
2023-06-13T08:03:17.633Z,3.83
2023-06-13T08:05:44.539Z,3.30
2023-06-13T08:08:11.251Z,3.78
2023-06-13T08:10:38.019Z,3.33
2023-06-13T08:13:04.780Z,3.15
2023-06-13T08:15:31.436Z,3.63
2023-06-13T08:17:59.016Z,3.65
2023-06-13T08:20:26.177Z,2.90
2023-06-13T08:22:52.878Z,3.78
2023-06-13T08:25:19.635Z,3.65
2023-06-13T08:27:47.342Z,3.33
2023-06-13T08:30:15.346Z,3.55
2023-06-13T08:32:42.840Z,3.70
2023-06-13T08:35:10.187Z,3.67
2023-06-13T08:37:37.254Z,3.42
2023-06-13T08:40:11.412Z,3.60
2023-06-13T08:42:39.021Z,3.10
2023-06-13T08:45:07.279Z,3.28
2023-06-13T08:47:37.645Z,3.22
2023-06-13T08:50:06.070Z,3.22
2023-06-13T08:52:41.678Z,3.40
2023-06-13T08:55:45.920Z,3.28
2023-06-13T08:58:03.923Z,3.10
2023-06-13T09:00:35.198Z,3.40
2023-06-13T09:03:05.188Z,3.28
2023-06-13T09:05:33.462Z,2.42
2023-06-13T09:08:23.496Z,3.22
2023-06-13T09:10:48.474Z,3.50
2023-06-13T09:13:17.501Z,3.70
2023-06-13T09:15:46.085Z,3.40
2023-06-13T09:18:13.167Z,3.30
2023-06-13T09:20:39.856Z,3.15
2023-06-13T09:23:06.716Z,3.60
2023-06-13T09:25:37.508Z,3.17
2023-06-13T09:28:33.926Z,3.35
2023-06-13T09:31:01.067Z,3.42
2023-06-13T09:33:28.225Z,3.90
2023-06-13T09:35:55.259Z,4.13
2023-06-13T09:38:27.961Z,3.88
2023-06-13T09:40:56.887Z,3.95
2023-06-13T09:43:24.538Z,3.70
2023-06-13T09:45:52.547Z,3.80
2023-06-13T09:48:19.489Z,3.72
2023-06-13T09:50:46.328Z,3.20
2023-06-13T09:53:13.337Z,3.65
2023-06-13T09:55:40.062Z,3.58
2023-06-13T09:58:22.370Z,3.88
2023-06-13T10:01:00.816Z,3.80
2023-06-13T10:03:31.628Z,3.60
2023-06-13T10:06:00.038Z,3.70
2023-06-13T10:08:26.783Z,3.58
2023-06-13T10:11:01.081Z,3.70
2023-06-13T10:13:30.748Z,3.35
2023-06-13T10:15:59.474Z,4.18
2023-06-13T10:18:38.333Z,3.30
2023-06-13T10:21:07.615Z,3.35
2023-06-13T10:23:41.840Z,3.30
2023-06-13T10:26:16.338Z,3.78
2023-06-13T10:28:51.822Z,3.50
2023-06-13T10:31:27.386Z,3.97
2023-06-13T10:34:01.407Z,4.00
2023-06-13T10:37:07.194Z,4.45
2023-06-13T10:40:06.038Z,3.92
2023-06-13T10:42:42.049Z,3.72
2023-06-13T10:45:23.055Z,4.40
2023-06-13T10:47:49.899Z,4.32
2023-06-13T10:50:17.423Z,4.03
2023-06-13T10:52:46.955Z,3.45
2023-06-13T10:55:23.250Z,4.63
2023-06-13T10:57:52.042Z,3.38
2023-06-13T11:00:28.819Z,3.83
2023-06-13T11:03:14.637Z,4.25
2023-06-13T11:05:49.763Z,3.72
2023-06-13T11:08:20.443Z,4.13
2023-06-13T11:10:49.001Z,3.92
2023-06-13T11:13:26.559Z,4.15
2023-06-13T11:15:58.097Z,4.28
2023-06-13T11:18:31.113Z,4.25
2023-06-13T11:20:59.146Z,3.80
2023-06-13T11:23:39.877Z,3.85
2023-06-13T11:26:06.924Z,3.65
2023-06-13T11:28:33.917Z,4.32
2023-06-13T11:31:05.648Z,3.83
2023-06-13T11:33:39.477Z,4.10
2023-06-13T11:36:06.448Z,3.53
2023-06-13T11:38:38.972Z,3.97
2023-06-13T11:41:06.505Z,3.92
2023-06-13T11:43:34.811Z,3.78
2023-06-13T11:46:02.706Z,3.85
2023-06-13T11:48:42.343Z,3.42
2023-06-13T11:51:16.688Z,3.90
2023-06-13T11:53:55.704Z,4.10
2023-06-13T11:56:25.096Z,4.00
2023-06-13T11:58:53.324Z,3.95
2023-06-13T12:01:23.499Z,4.05
2023-06-13T12:03:52.239Z,3.80
2023-06-13T12:06:19.889Z,3.85
2023-06-13T12:08:47.284Z,4.10
2023-06-13T12:11:25.631Z,4.20
2023-06-13T12:13:57.682Z,3.40
2023-06-13T12:16:32.978Z,5.10
2023-06-13T12:19:01.476Z,3.83
2023-06-13T12:21:33.229Z,4.05
2023-06-13T12:24:03.026Z,3.70
2023-06-13T12:26:34.226Z,4.00
2023-06-13T12:29:13.029Z,4.45
2023-06-13T12:31:45.858Z,4.32
2023-06-13T12:34:28.395Z,4.07
2023-06-13T12:37:00.959Z,3.75
2023-06-13T12:39:31.410Z,4.43
2023-06-13T12:42:02.140Z,4.38
2023-06-13T12:44:32.482Z,3.95
2023-06-13T12:47:00.782Z,3.80
2023-06-13T12:49:27.515Z,4.22
2023-06-13T12:51:54.127Z,3.60
2023-06-13T12:54:26.936Z,3.92
2023-06-13T12:57:01.082Z,4.10
2023-06-13T12:59:38.662Z,3.58
2023-06-13T13:02:08.424Z,4.30
2023-06-13T13:04:37.024Z,3.53
2023-06-13T13:07:05.238Z,3.22
2023-06-13T13:09:32.895Z,3.90
2023-06-13T13:12:00.219Z,4.00
2023-06-13T13:14:27.921Z,3.80
2023-06-13T13:16:55.388Z,3.55
2023-06-13T13:19:22.468Z,4.18
2023-06-13T13:21:50.379Z,3.70
2023-06-13T13:24:19.497Z,3.78
2023-06-13T13:26:48.470Z,3.80
2023-06-13T13:29:16.637Z,3.60
2023-06-13T13:31:43.409Z,4.25
2023-06-13T13:34:22.773Z,4.00
2023-06-13T13:36:50.901Z,3.92
2023-06-13T13:39:18.178Z,3.50
2023-06-13T13:41:45.204Z,3.85
2023-06-13T13:44:12.293Z,3.70
2023-06-13T13:46:39.050Z,4.20
2023-06-13T13:49:05.866Z,3.92
2023-06-13T13:51:33.496Z,4.28
2023-06-13T13:54:00.453Z,4.00
2023-06-13T13:56:27.925Z,4.07
2023-06-13T13:58:54.814Z,3.90
2023-06-13T14:01:21.972Z,3.72
2023-06-13T14:03:49.540Z,3.20
2023-06-13T14:06:16.942Z,4.00
2023-06-13T14:08:43.705Z,3.65
2023-06-13T14:11:10.346Z,3.75
2023-06-13T14:13:37.177Z,3.70
2023-06-13T14:16:04.934Z,3.70
2023-06-13T14:18:31.726Z,3.45
2023-06-13T14:20:59.852Z,3.25
2023-06-13T14:23:26.628Z,3.42
2023-06-13T14:25:53.362Z,3.67
2023-06-13T14:28:20.267Z,4.25
2023-06-13T14:30:46.988Z,3.33
2023-06-13T14:33:13.815Z,3.92
2023-06-13T14:35:40.460Z,3.30
2023-06-13T14:38:07.080Z,3.80
2023-06-13T14:40:33.972Z,3.42
2023-06-13T14:43:01.418Z,4.00
2023-06-13T14:45:28.233Z,3.50
2023-06-13T14:47:55.619Z,3.67
2023-06-13T14:50:23.082Z,3.47
2023-06-13T14:52:49.894Z,3.53
2023-06-13T14:55:16.589Z,4.07
2023-06-13T14:57:43.500Z,3.60
2023-06-13T15:00:11.816Z,3.17
2023-06-13T15:02:39.044Z,3.60
2023-06-13T15:05:06.505Z,3.60
2023-06-13T15:07:33.920Z,3.55
2023-06-13T15:10:00.893Z,3.92
2023-06-13T15:12:28.272Z,3.55
2023-06-13T15:14:55.240Z,3.45
2023-06-13T15:17:22.172Z,3.65
2023-06-13T15:19:49.070Z,3.63
2023-06-13T15:22:15.804Z,3.50
2023-06-13T15:24:42.447Z,3.15
2023-06-13T15:27:09.119Z,3.35
2023-06-13T15:29:35.886Z,3.30
2023-06-13T15:32:02.604Z,3.38
2023-06-13T15:34:30.843Z,3.70
2023-06-13T15:36:59.031Z,4.93
2023-06-13T15:39:25.657Z,3.38
2023-06-13T15:41:52.652Z,3.80
2023-06-13T15:44:19.388Z,3.63
2023-06-13T15:46:47.148Z,3.38
2023-06-13T15:49:13.781Z,3.67
2023-06-13T15:51:40.554Z,3.22
2023-06-13T15:54:07.151Z,3.15
2023-06-13T15:56:34.269Z,3.80
2023-06-13T15:59:01.360Z,3.70
2023-06-13T16:01:28.390Z,3.72
2023-06-13T16:03:55.380Z,4.00
2023-06-13T16:06:22.295Z,3.40
2023-06-13T16:08:49.731Z,3.42
2023-06-13T16:11:16.609Z,3.80
2023-06-13T16:13:43.398Z,3.55
2023-06-13T16:16:10.055Z,3.22
2023-06-13T16:18:38.383Z,3.50
2023-06-13T16:21:05.258Z,3.38
2023-06-13T16:23:32.226Z,3.70
2023-06-13T16:25:58.930Z,3.53
2023-06-13T16:28:25.617Z,3.55
2023-06-13T16:30:53.148Z,3.58
2023-06-13T16:33:20.038Z,3.22
2023-06-13T16:35:47.209Z,3.55
2023-06-13T16:38:15.455Z,3.60
2023-06-13T16:40:43.144Z,3.38
2023-06-13T16:43:10.309Z,3.50
2023-06-13T16:45:37.667Z,3.72
2023-06-13T16:48:04.925Z,3.85
2023-06-13T16:50:31.926Z,3.75
2023-06-13T16:53:00.214Z,3.33
2023-06-13T16:55:28.803Z,3.47
2023-06-13T16:57:56.485Z,3.42
2023-06-13T17:00:23.695Z,3.65
2023-06-13T17:02:50.406Z,3.40
2023-06-13T17:05:17.454Z,3.58
2023-06-13T17:07:44.589Z,3.10
2023-06-13T17:10:11.429Z,3.40
2023-06-13T17:12:43.543Z,3.25
2023-06-13T17:15:11.180Z,3.78
2023-06-13T17:17:38.115Z,3.10
2023-06-13T17:20:08.842Z,3.10
2023-06-13T17:22:35.897Z,3.42
2023-06-13T17:25:02.646Z,2.90
2023-06-13T17:27:29.341Z,3.53
2023-06-13T17:29:56.270Z,3.30
2023-06-13T17:32:23.076Z,3.88
2023-06-13T17:34:50.049Z,3.60
2023-06-13T17:37:18.350Z,3.20
2023-06-13T17:39:45.004Z,4.43
2023-06-13T17:42:12.503Z,3.70
2023-06-13T17:44:39.336Z,3.42
2023-06-13T17:47:07.656Z,3.08
2023-06-13T17:49:34.542Z,3.30
2023-06-13T17:52:01.387Z,3.25
2023-06-13T17:54:28.072Z,2.97
2023-06-13T17:56:54.777Z,3.28
2023-06-13T17:59:21.554Z,3.08
2023-06-13T18:01:49.615Z,3.30
2023-06-13T18:04:17.487Z,3.15
2023-06-13T18:06:44.274Z,3.35
2023-06-13T18:09:11.895Z,3.08
2023-06-13T18:11:38.856Z,3.05
2023-06-13T18:14:09.200Z,2.88
2023-06-13T18:16:37.031Z,2.92
2023-06-13T18:19:08.764Z,3.28
2023-06-13T18:21:35.488Z,3.50
2023-06-13T18:24:02.324Z,3.40
2023-06-13T18:26:29.151Z,2.80
2023-06-13T18:28:56.063Z,3.83
2023-06-13T18:31:22.919Z,3.30
2023-06-13T18:33:49.681Z,3.33
2023-06-13T18:36:17.013Z,3.47
2023-06-13T18:38:43.646Z,2.97
2023-06-13T18:41:10.303Z,3.08
2023-06-13T18:43:36.986Z,2.90
2023-06-13T18:46:03.627Z,3.20
2023-06-13T18:48:31.289Z,3.25
2023-06-13T18:50:58.322Z,3.42
2023-06-13T18:53:25.196Z,3.33
2023-06-13T18:55:52.153Z,3.20
2023-06-13T18:58:18.899Z,2.58
2023-06-13T19:00:46.032Z,3.05
2023-06-13T19:03:16.595Z,2.97
2023-06-13T19:05:43.824Z,3.17
2023-06-13T19:08:10.653Z,3.00
2023-06-13T19:10:37.914Z,2.60
2023-06-13T19:13:04.937Z,3.58
2023-06-13T19:15:33.629Z,3.47
2023-06-13T19:18:00.595Z,3.20
2023-06-13T19:20:28.088Z,3.15
2023-06-13T19:22:54.905Z,3.05
2023-06-13T19:25:26.211Z,3.67
2023-06-13T19:27:58.255Z,3.00
2023-06-13T19:30:27.771Z,3.10
2023-06-13T19:32:55.532Z,2.53
2023-06-13T19:35:23.175Z,2.70
2023-06-13T19:37:49.833Z,3.15
2023-06-13T19:40:19.612Z,3.10
2023-06-13T19:42:48.021Z,3.10
2023-06-13T19:45:15.233Z,3.00
2023-06-13T19:47:42.544Z,2.90
2023-06-13T19:50:10.064Z,3.20
2023-06-13T19:52:37.424Z,2.95
2023-06-13T19:55:04.881Z,3.00
2023-06-13T19:57:32.400Z,3.70
2023-06-13T19:59:59.173Z,3.15
2023-06-13T20:02:25.814Z,3.08
2023-06-13T20:04:52.738Z,3.00
2023-06-13T20:07:19.495Z,3.28
2023-06-13T20:09:46.168Z,2.80
2023-06-13T20:12:12.921Z,2.80
2023-06-13T20:14:39.618Z,2.80
2023-06-13T20:17:07.180Z,3.17
2023-06-13T20:19:34.076Z,3.10
2023-06-13T20:22:01.698Z,2.50
2023-06-13T20:24:28.386Z,2.63
2023-06-13T20:26:55.008Z,3.00
2023-06-13T20:29:21.710Z,3.28
2023-06-13T20:31:48.694Z,2.85
2023-06-13T20:34:17.491Z,2.85
2023-06-13T20:36:44.367Z,2.60
2023-06-13T20:39:11.063Z,3.05
2023-06-13T20:41:38.667Z,2.65
2023-06-13T20:44:08.579Z,2.80
2023-06-13T20:46:38.880Z,2.65
2023-06-13T20:49:05.643Z,2.92
2023-06-13T20:51:36.301Z,3.00
2023-06-13T20:54:03.289Z,3.05
2023-06-13T20:56:29.944Z,3.05
2023-06-13T20:58:57.928Z,3.22
2023-06-13T21:01:24.737Z,2.85
2023-06-13T21:03:51.932Z,2.55
2023-06-13T21:06:20.525Z,2.58
2023-06-13T21:08:47.257Z,2.83
2023-06-13T21:11:14.367Z,2.60
2023-06-13T21:13:41.160Z,2.97
2023-06-13T21:16:08.679Z,2.75
2023-06-13T21:18:36.104Z,2.90
2023-06-13T21:21:02.734Z,3.20
2023-06-13T21:23:29.952Z,2.72
2023-06-13T21:25:56.769Z,2.80
2023-06-13T21:28:23.393Z,3.00
2023-06-13T21:30:50.012Z,2.58
2023-06-13T21:33:19.064Z,2.88
2023-06-13T21:35:46.720Z,2.50
2023-06-13T21:38:13.453Z,2.75
2023-06-13T21:40:40.087Z,3.20
2023-06-13T21:43:06.696Z,2.90
2023-06-13T21:45:33.330Z,3.20
2023-06-13T21:48:00.775Z,2.55
2023-06-13T21:50:27.695Z,3.03
2023-06-13T21:52:54.436Z,3.08
2023-06-13T21:55:21.455Z,3.05
2023-06-13T21:57:48.380Z,3.30
2023-06-13T22:00:17.872Z,2.90
2023-06-13T22:02:45.946Z,3.50
2023-06-13T22:05:13.463Z,3.25
2023-06-13T22:07:40.940Z,3.20
2023-06-13T22:10:08.157Z,3.10
2023-06-13T22:12:35.916Z,2.85
2023-06-13T22:15:03.520Z,3.08
2023-06-13T22:17:30.841Z,3.25
2023-06-13T22:20:01.175Z,3.25
2023-06-13T22:22:30.885Z,3.30
2023-06-13T22:24:59.646Z,3.03
2023-06-13T22:27:26.698Z,3.38
2023-06-13T22:29:53.570Z,3.17
2023-06-13T22:32:20.952Z,3.20
2023-06-13T22:34:47.722Z,3.20
2023-06-13T22:37:14.630Z,2.83
2023-06-13T22:39:41.275Z,3.10
2023-06-13T22:42:08.817Z,2.67
2023-06-13T22:44:36.255Z,3.20
2023-06-13T22:47:03.681Z,3.10
2023-06-13T22:49:30.335Z,2.95
2023-06-13T22:51:57.634Z,3.45
2023-06-13T22:54:24.635Z,3.20
2023-06-13T22:56:51.409Z,3.33
2023-06-13T22:59:19.040Z,3.33
2023-06-13T23:01:46.628Z,3.47
2023-06-13T23:04:13.545Z,3.10
2023-06-13T23:06:42.260Z,3.60
2023-06-13T23:09:09.981Z,3.10
2023-06-13T23:11:37.686Z,3.65
2023-06-13T23:14:04.333Z,3.67
2023-06-13T23:16:31.125Z,3.55
2023-06-13T23:18:58.255Z,3.50
2023-06-13T23:21:25.977Z,3.15
2023-06-13T23:23:52.805Z,3.05
2023-06-13T23:26:19.499Z,3.10
2023-06-13T23:28:46.154Z,3.25
2023-06-13T23:31:14.436Z,3.33
2023-06-13T23:33:44.090Z,3.42
2023-06-13T23:36:10.716Z,3.47
2023-06-13T23:38:38.636Z,3.17
2023-06-13T23:41:05.529Z,2.90
2023-06-13T23:43:32.211Z,3.00
2023-06-13T23:46:01.688Z,3.17
2023-06-13T23:48:29.644Z,3.75
2023-06-13T23:50:56.521Z,3.33
2023-06-13T23:53:23.610Z,3.83
2023-06-13T23:55:50.597Z,3.40
2023-06-13T23:58:18.663Z,3.53
